Time;durP1;ratioP1;P1;durP2;ratioP2;P2;SDS_P1;SDS_P2;PMS_P1;PMS_P2;Temp;Humidity;BMP_temperature;BMP_pressure;BME280_temperature;BME280_humidity;BME280_pressure;Samples;Min_cycle;Max_cycle;Signal;HPM_P1;HPM_P2
2022/05/18 00:01:32;;;;;;;13.02;6.30;;;14.60;99.90;;;;;;4994911;28;20092;-87
2022/05/18 00:03:58;;;;;;;16.30;6.43;;;14.60;99.90;;;;;;4996216;28;20054;-85
2022/05/18 00:06:24;;;;;;;10.07;5.90;;;14.60;99.90;;;;;;4996014;28;20026;-86
2022/05/18 00:08:49;;;;;;;14.23;5.82;;;14.60;99.90;;;;;;4987614;28;20023;-87
2022/05/18 00:11:18;;;;;;;10.65;5.47;;;14.50;99.90;;;;;;4986517;28;20491;-86
2022/05/18 00:13:46;;;;;;;19.20;6.35;;;14.50;99.90;;;;;;4991501;28;20026;-86
2022/05/18 00:16:13;;;;;;;12.10;6.05;;;14.50;99.90;;;;;;4984350;28;20093;-86
2022/05/18 00:18:39;;;;;;;11.88;6.15;;;14.40;99.90;;;;;;4984316;28;20034;-86
2022/05/18 00:21:06;;;;;;;14.05;6.80;;;14.40;99.90;;;;;;4985373;28;20030;-87
2022/05/18 00:23:33;;;;;;;12.15;6.65;;;14.40;99.90;;;;;;4985523;28;20027;-86
2022/05/18 00:25:59;;;;;;;11.00;6.25;;;14.40;99.90;;;;;;4968828;28;20035;-86
2022/05/18 00:28:25;;;;;;;10.68;6.88;;;14.40;99.90;;;;;;4983063;28;20014;-85
2022/05/18 00:30:52;;;;;;;19.92;6.85;;;14.40;99.90;;;;;;4968267;28;20061;-87
2022/05/18 00:33:18;;;;;;;15.32;6.63;;;14.30;99.90;;;;;;4994004;28;20011;-86
2022/05/18 00:35:44;;;;;;;9.88;6.35;;;14.30;99.90;;;;;;4994439;28;20038;-86
2022/05/18 00:38:11;;;;;;;11.95;6.57;;;14.30;99.90;;;;;;4997872;28;20288;-88
2022/05/18 00:40:39;;;;;;;12.32;5.93;;;14.20;99.90;;;;;;4998670;28;20023;-87
2022/05/18 00:43:05;;;;;;;12.32;5.78;;;14.20;99.90;;;;;;4997616;28;20022;-86
2022/05/18 00:45:31;;;;;;;13.80;6.00;;;14.20;99.90;;;;;;4998426;28;20062;-87
2022/05/18 00:47:57;;;;;;;16.95;6.50;;;14.20;99.90;;;;;;4998916;28;20058;-86
2022/05/18 00:50:28;;;;;;;15.82;7.05;;;14.10;99.90;;;;;;4992193;28;20471;-86
2022/05/18 00:52:59;;;;;;;14.95;6.78;;;14.10;99.90;;;;;;4981374;28;20042;-86
2022/05/18 00:55:29;;;;;;;10.77;6.55;;;14.10;99.90;;;;;;4982123;28;20037;-86
2022/05/18 00:58:08;;;;;;;14.73;7.05;;;14.10;99.90;;;;;;4991290;28;20031;-88
2022/05/18 01:00:37;;;;;;;14.73;6.63;;;14.10;99.90;;;;;;4995644;28;20027;-86
2022/05/18 01:03:26;;;;;;;13.65;6.07;;;14.10;99.90;;;;;;4989358;28;20023;-86
2022/05/18 01:06:06;;;;;;;15.35;6.35;;;14.00;99.90;;;;;;4984670;28;20147;-86
2022/05/18 01:08:59;;;;;;;12.60;6.43;;;14.00;99.90;;;;;;4978351;28;20042;-86
2022/05/18 01:11:25;;;;;;;10.98;6.63;;;14.00;99.90;;;;;;4980829;28;20035;-84
2022/05/18 01:13:51;;;;;;;16.15;6.95;;;13.90;99.90;;;;;;4987148;28;20054;-87
2022/05/18 01:16:19;;;;;;;15.25;6.15;;;13.90;99.90;;;;;;4997393;28;20066;-86
2022/05/18 01:18:46;;;;;;;13.10;6.15;;;13.90;99.90;;;;;;4998252;28;20023;-86
2022/05/18 01:21:13;;;;;;;14.50;6.47;;;13.80;99.90;;;;;;4997949;28;20077;-85
2022/05/18 01:23:52;;;;;;;12.68;6.72;;;13.90;99.90;;;;;;4997715;28;20030;-86
2022/05/18 01:26:41;;;;;;;10.30;6.47;;;13.80;99.90;;;;;;4998706;28;20094;-87
2022/05/18 01:29:08;;;;;;;10.73;6.70;;;13.80;99.90;;;;;;5001994;28;20027;-85
2022/05/18 01:31:50;;;;;;;14.32;6.82;;;13.80;99.90;;;;;;5002365;28;20011;-86
2022/05/18 01:34:20;;;;;;;12.70;5.80;;;13.80;99.90;;;;;;5001556;28;20015;-85
2022/05/18 01:36:47;;;;;;;14.15;6.18;;;13.80;99.90;;;;;;5000804;28;20026;-86
2022/05/18 01:39:18;;;;;;;13.02;6.60;;;13.70;99.90;;;;;;4999733;28;20031;-85
2022/05/18 01:41:52;;;;;;;9.55;6.30;;;13.70;99.90;;;;;;4999832;28;20054;-86
2022/05/18 01:44:19;;;;;;;12.02;6.32;;;13.70;99.90;;;;;;5000078;28;20104;-85
2022/05/18 01:46:48;;;;;;;13.02;7.10;;;13.70;99.90;;;;;;5000642;28;20066;-86
2022/05/18 01:49:14;;;;;;;8.30;5.93;;;13.70;99.90;;;;;;4998892;28;20038;-85
2022/05/18 01:51:45;;;;;;;16.35;7.07;;;13.70;99.90;;;;;;5001247;28;20082;-86
2022/05/18 01:54:11;;;;;;;11.52;6.20;;;13.70;99.90;;;;;;4992373;28;20030;-87
2022/05/18 01:56:37;;;;;;;9.98;6.45;;;13.70;99.90;;;;;;4997594;28;20112;-87
2022/05/18 01:59:03;;;;;;;11.20;5.90;;;13.70;99.90;;;;;;4995227;28;20042;-86
2022/05/18 02:01:29;;;;;;;11.60;6.25;;;13.60;99.90;;;;;;4999179;28;20046;-87
2022/05/18 02:03:55;;;;;;;13.35;6.82;;;13.60;99.90;;;;;;4998817;28;20031;-85
2022/05/18 02:06:21;;;;;;;12.65;6.47;;;13.60;99.90;;;;;;4999133;28;20033;-86
2022/05/18 02:08:47;;;;;;;8.82;6.22;;;13.50;99.90;;;;;;4998890;28;20022;-85
2022/05/18 02:11:19;;;;;;;12.05;6.25;;;13.50;99.90;;;;;;4990201;28;20045;-86
2022/05/18 02:13:45;;;;;;;11.23;6.25;;;13.40;99.90;;;;;;4989949;28;20034;-85
2022/05/18 02:16:12;;;;;;;12.98;6.80;;;13.50;99.90;;;;;;4989381;28;20035;-84
2022/05/18 02:18:38;;;;;;;12.15;6.75;;;13.40;99.90;;;;;;4988177;28;20047;-86
2022/05/18 02:21:05;;;;;;;12.68;6.00;;;13.40;99.90;;;;;;4987992;28;20030;-86
2022/05/18 02:23:31;;;;;;;11.13;6.63;;;13.40;99.90;;;;;;4987197;28;20065;-86
2022/05/18 02:25:58;;;;;;;13.70;6.75;;;13.50;99.90;;;;;;4987192;28;20027;-85
2022/05/18 02:28:25;;;;;;;16.55;6.88;;;13.40;99.90;;;;;;4986504;28;20097;-86
2022/05/18 02:30:51;;;;;;;11.70;6.75;;;13.40;99.90;;;;;;4986989;28;20030;-85
2022/05/18 02:33:16;;;;;;;12.30;6.55;;;13.40;99.90;;;;;;4989478;28;20050;-86
2022/05/18 02:35:42;;;;;;;8.95;6.38;;;13.40;99.90;;;;;;4990581;28;20027;-86
2022/05/18 02:38:09;;;;;;;15.50;7.00;;;13.40;99.90;;;;;;4990635;28;20037;-86
2022/05/18 02:40:35;;;;;;;9.30;6.45;;;13.40;99.90;;;;;;4989762;28;20038;-84
2022/05/18 02:43:01;;;;;;;14.25;6.07;;;13.40;99.90;;;;;;4989198;28;20051;-85
2022/05/18 02:45:27;;;;;;;15.23;6.53;;;13.40;99.90;;;;;;4987854;28;20019;-86
2022/05/18 02:47:53;;;;;;;13.07;6.22;;;13.30;99.90;;;;;;4995016;28;20053;-86
2022/05/18 02:50:19;;;;;;;13.27;6.47;;;13.30;99.90;;;;;;4990503;28;20037;-86
2022/05/18 02:52:45;;;;;;;9.57;6.28;;;13.30;99.90;;;;;;4973671;28;20038;-87
2022/05/18 02:57:56;;;;;;;13.52;6.30;;;13.30;99.90;;;;;;4995280;28;20051;-86
2022/05/18 03:00:22;;;;;;;21.20;6.78;;;13.30;99.90;;;;;;4996232;28;20065;-86
2022/05/18 03:02:48;;;;;;;10.57;6.22;;;13.20;99.90;;;;;;4981414;28;20031;-86
2022/05/18 03:05:14;;;;;;;16.98;7.18;;;13.20;99.90;;;;;;4994417;28;20027;-88
2022/05/18 03:07:40;;;;;;;14.77;7.25;;;13.20;99.90;;;;;;4994726;28;20509;-86
2022/05/18 03:10:06;;;;;;;11.07;6.30;;;13.20;99.90;;;;;;4987422;28;20348;-87
2022/05/18 03:12:32;;;;;;;16.10;6.53;;;13.20;99.90;;;;;;4988151;28;20047;-85
2022/05/18 03:15:00;;;;;;;14.13;6.57;;;13.20;99.90;;;;;;5028931;23;20046;-88
2022/05/18 03:17:26;;;;;;;11.15;6.38;;;13.20;99.90;;;;;;5015133;28;20041;-89
2022/05/18 03:19:52;;;;;;;12.40;6.45;;;13.10;99.90;;;;;;5014528;28;20098;-91
2022/05/18 03:25:02;;;;;;;10.63;6.33;;;13.10;99.90;;;;;;5013557;28;20052;-89
2022/05/18 03:27:28;;;;;;;13.82;6.60;;;13.10;99.90;;;;;;5013010;28;20081;-88
2022/05/18 03:29:54;;;;;;;11.25;6.60;;;13.10;99.90;;;;;;5013040;28;20027;-88
2022/05/18 03:32:22;;;;;;;13.25;6.10;;;13.10;99.90;;;;;;4994942;28;20033;-88
2022/05/18 03:34:49;;;;;;;16.75;6.93;;;13.10;99.90;;;;;;5011387;28;20030;-89
2022/05/18 03:37:16;;;;;;;15.50;7.05;;;13.10;99.90;;;;;;5010368;28;20037;-89
2022/05/18 03:39:43;;;;;;;17.48;6.47;;;13.20;99.90;;;;;;5009252;28;20034;-89
2022/05/18 03:42:09;;;;;;;11.75;6.15;;;13.10;99.90;;;;;;5011095;28;20038;-90
2022/05/18 03:44:35;;;;;;;13.02;6.20;;;13.10;99.90;;;;;;4994596;28;20045;-88
2022/05/18 03:47:00;;;;;;;14.13;7.10;;;13.20;99.90;;;;;;5013398;28;20030;-89
2022/05/18 03:49:26;;;;;;;10.43;6.10;;;13.20;99.90;;;;;;5013173;28;20031;-91
2022/05/18 03:51:52;;;;;;;12.25;6.82;;;13.20;99.90;;;;;;5012175;28;20056;-89
2022/05/18 03:54:18;;;;;;;12.20;6.57;;;13.20;99.90;;;;;;5010275;28;20041;-88
2022/05/18 03:56:43;;;;;;;18.13;7.18;;;13.20;99.90;;;;;;4992656;28;20049;-89
2022/05/18 03:59:10;;;;;;;14.27;6.53;;;13.20;99.90;;;;;;4992281;28;20037;-89
2022/05/18 04:01:36;;;;;;;17.83;7.03;;;13.20;99.90;;;;;;5006946;28;20061;-89
2022/05/18 04:04:02;;;;;;;12.85;6.22;;;13.30;99.90;;;;;;5010578;28;20034;-90
2022/05/18 04:06:28;;;;;;;13.20;7.15;;;13.30;99.90;;;;;;5007490;28;20022;-87
2022/05/18 04:08:55;;;;;;;13.02;6.32;;;13.30;99.90;;;;;;5012222;28;20049;-89
2022/05/18 04:11:20;;;;;;;18.08;6.78;;;13.40;99.90;;;;;;5015989;28;20094;-90
2022/05/18 04:13:46;;;;;;;18.10;6.82;;;13.50;99.90;;;;;;5016320;28;20042;-90
2022/05/18 04:16:12;;;;;;;15.68;7.00;;;13.50;99.90;;;;;;5015877;28;20033;-88
2022/05/18 04:18:38;;;;;;;12.52;6.82;;;13.60;99.90;;;;;;5015787;28;20124;-86
2022/05/18 04:21:06;;;;;;;12.05;6.68;;;13.70;99.90;;;;;;5017344;28;20061;-89
2022/05/18 04:23:32;;;;;;;11.73;6.47;;;13.80;99.90;;;;;;5016357;28;20102;-88
2022/05/18 04:25:58;;;;;;;15.68;6.85;;;13.90;99.90;;;;;;5015334;28;20022;-88
2022/05/18 04:28:24;;;;;;;14.02;6.30;;;13.90;99.90;;;;;;5014965;28;20030;-89
2022/05/18 04:30:50;;;;;;;20.58;6.40;;;14.00;99.90;;;;;;5016978;28;20030;-90
2022/05/18 04:33:20;;;;;;;16.90;6.22;;;14.10;99.90;;;;;;5016210;28;20037;-89
2022/05/18 04:35:48;;;;;;;16.60;6.38;;;14.10;99.90;;;;;;5017495;28;20030;-89
2022/05/18 04:38:15;;;;;;;11.18;6.78;;;14.20;99.90;;;;;;5017450;28;20057;-89
2022/05/18 04:40:41;;;;;;;17.65;7.30;;;14.30;99.90;;;;;;5017177;28;20086;-89
2022/05/18 04:43:07;;;;;;;11.32;6.15;;;14.40;99.90;;;;;;5015729;28;20037;-89
2022/05/18 04:45:34;;;;;;;11.35;6.03;;;14.40;99.90;;;;;;5016121;28;20037;-88
2022/05/18 04:47:59;;;;;;;14.20;6.53;;;14.60;99.90;;;;;;5014765;28;20031;-88
2022/05/18 04:50:25;;;;;;;13.38;6.40;;;14.80;99.90;;;;;;5016099;28;20030;-89
2022/05/18 04:52:51;;;;;;;11.38;6.35;;;15.00;99.90;;;;;;5015349;28;20037;-89
2022/05/18 04:55:17;;;;;;;15.13;6.70;;;15.10;99.90;;;;;;5014714;28;20077;-90
2022/05/18 04:57:43;;;;;;;11.88;6.45;;;15.20;99.90;;;;;;5015965;28;20022;-91
2022/05/18 05:00:16;;;;;;;14.52;6.45;;;15.10;99.90;;;;;;4998487;28;20046;-90
2022/05/18 05:02:42;;;;;;;13.05;6.88;;;15.20;99.90;;;;;;5020347;28;20049;-89
2022/05/18 05:05:13;;;;;;;9.00;5.70;;;15.30;99.90;;;;;;5020108;28;20038;-89
2022/05/18 05:07:39;;;;;;;12.52;5.82;;;15.30;99.90;;;;;;5020006;28;20037;-90
2022/05/18 05:10:07;;;;;;;11.20;6.32;;;15.70;99.90;;;;;;5019701;28;20049;-90
2022/05/18 05:12:33;;;;;;;12.57;6.60;;;16.00;99.90;;;;;;5018158;28;20027;-90
2022/05/18 05:14:59;;;;;;;13.23;5.88;;;16.00;99.90;;;;;;5019178;28;20041;-89
2022/05/18 05:17:25;;;;;;;14.88;5.95;;;16.00;99.90;;;;;;5017366;28;20090;-88
2022/05/18 05:19:51;;;;;;;16.02;6.65;;;15.90;99.90;;;;;;5015996;28;20064;-90
2022/05/18 05:22:17;;;;;;;13.85;6.10;;;15.80;99.90;;;;;;5018475;28;20057;-89
2022/05/18 05:24:43;;;;;;;14.90;6.28;;;15.80;99.90;;;;;;5021487;28;20019;-89
2022/05/18 05:27:09;;;;;;;15.60;6.35;;;15.80;99.90;;;;;;5020799;28;20037;-88
2022/05/18 05:29:34;;;;;;;14.02;6.35;;;15.90;99.90;;;;;;5021028;28;20021;-90
2022/05/18 05:32:08;;;;;;;16.83;6.35;;;15.90;99.90;;;;;;5020719;28;20081;-89
2022/05/18 05:34:34;;;;;;;10.85;5.78;;;16.10;99.90;;;;;;5020821;28;20015;-90
2022/05/18 05:37:00;;;;;;;20.30;9.18;;;16.20;99.90;;;;;;5020776;28;20019;-89
2022/05/18 05:39:26;;;;;;;10.73;6.07;;;16.20;99.90;;;;;;5112571;23;20053;-89
2022/05/18 05:41:52;;;;;;;15.38;6.45;;;16.20;99.90;;;;;;5000448;28;20031;-87
2022/05/18 05:44:18;;;;;;;13.68;6.97;;;16.30;99.90;;;;;;5016993;28;20023;-89
2022/05/18 05:46:45;;;;;;;13.50;6.03;;;16.40;99.90;;;;;;4982219;28;20039;-90
2022/05/18 05:49:11;;;;;;;15.07;5.75;;;16.50;99.90;;;;;;4981246;28;20030;-89
2022/05/18 05:51:38;;;;;;;10.88;6.22;;;16.60;99.90;;;;;;4965252;28;20015;-89
2022/05/18 05:54:04;;;;;;;14.43;6.20;;;16.70;99.90;;;;;;4981831;28;20031;-88
2022/05/18 05:56:30;;;;;;;12.63;5.55;;;16.70;99.90;;;;;;4981389;28;20023;-88
2022/05/18 05:58:56;;;;;;;12.07;6.40;;;16.70;99.90;;;;;;4980876;28;20051;-88
2022/05/18 06:01:22;;;;;;;9.57;5.70;;;16.80;99.90;;;;;;4980385;28;20122;-89
2022/05/18 06:03:48;;;;;;;12.85;5.85;;;16.80;99.90;;;;;;4981078;28;20023;-88
2022/05/18 06:06:14;;;;;;;10.35;6.03;;;16.90;99.90;;;;;;4981207;28;20128;-88
2022/05/18 06:08:40;;;;;;;13.23;6.28;;;17.00;99.90;;;;;;4980782;28;20102;-88
2022/05/18 06:11:08;;;;;;;11.38;6.30;;;17.10;99.90;;;;;;4981366;28;20019;-88
2022/05/18 06:13:34;;;;;;;18.77;10.32;;;17.10;99.90;;;;;;4979655;28;20026;-87
2022/05/18 06:16:01;;;;;;;14.10;7.10;;;17.20;99.90;;;;;;4981111;28;20016;-87
2022/05/18 06:18:27;;;;;;;16.85;7.15;;;17.20;99.90;;;;;;4981347;28;20092;-87
2022/05/18 06:20:53;;;;;;;15.10;6.65;;;17.20;99.90;;;;;;4981081;28;20075;-86
2022/05/18 06:23:19;;;;;;;13.80;6.65;;;17.30;99.90;;;;;;4980795;28;20106;-87
2022/05/18 06:25:46;;;;;;;11.32;6.68;;;17.30;99.90;;;;;;4979919;28;20039;-88
2022/05/18 06:28:12;;;;;;;17.27;6.13;;;17.40;99.90;;;;;;4981173;28;20022;-88
2022/05/18 06:30:38;;;;;;;12.10;6.57;;;17.30;99.90;;;;;;4981444;28;20047;-86
2022/05/18 06:33:05;;;;;;;13.05;5.90;;;17.30;99.90;;;;;;4980059;28;20023;-87
2022/05/18 06:35:31;;;;;;;14.30;6.43;;;17.40;99.90;;;;;;4980718;28;20023;-87
2022/05/18 06:37:57;;;;;;;15.77;6.45;;;17.50;99.90;;;;;;4979507;28;20091;-88
2022/05/18 06:43:08;;;;;;;11.57;6.20;;;17.70;99.90;;;;;;4977651;28;20054;-88
2022/05/18 06:45:34;;;;;;;13.65;6.47;;;17.80;99.90;;;;;;4975992;28;20120;-90
2022/05/18 06:48:01;;;;;;;12.85;6.68;;;17.80;99.90;;;;;;4974497;29;20035;-88
2022/05/18 06:50:27;;;;;;;12.35;6.47;;;17.80;99.90;;;;;;4975153;29;20036;-90
2022/05/18 06:52:53;;;;;;;12.95;6.35;;;17.70;99.90;;;;;;4976296;29;20065;-90
2022/05/18 06:55:19;;;;;;;12.30;6.15;;;17.90;99.90;;;;;;4974013;28;20059;-89
2022/05/18 06:57:45;;;;;;;12.30;5.72;;;17.90;99.90;;;;;;4979105;28;20019;-88
2022/05/18 07:00:12;;;;;;;14.02;6.68;;;18.00;99.90;;;;;;4980619;28;20024;-89
2022/05/18 07:02:37;;;;;;;12.10;7.13;;;18.00;99.90;;;;;;4980766;28;20019;-89
2022/05/18 07:05:03;;;;;;;15.15;6.50;;;18.00;99.90;;;;;;4980062;28;20020;-88
2022/05/18 07:07:29;;;;;;;13.13;6.47;;;17.90;99.90;;;;;;4979929;28;20046;-88
2022/05/18 07:09:55;;;;;;;12.35;5.95;;;18.00;99.90;;;;;;4979923;28;20016;-91
2022/05/18 07:12:21;;;;;;;10.13;6.43;;;18.00;99.90;;;;;;4976367;28;20031;-89
2022/05/18 07:14:47;;;;;;;16.40;6.85;;;17.90;99.90;;;;;;4972382;28;20038;-91
2022/05/18 07:17:13;;;;;;;14.75;6.90;;;17.80;99.90;;;;;;4971100;29;20635;-91
2022/05/18 07:19:39;;;;;;;17.88;7.43;;;17.80;99.90;;;;;;4969819;29;20031;-89
2022/05/18 07:22:06;;;;;;;11.30;6.15;;;17.80;99.90;;;;;;4969478;29;20599;-89
2022/05/18 07:24:31;;;;;;;15.80;7.00;;;17.90;99.90;;;;;;4970823;28;20030;-89
2022/05/18 07:26:57;;;;;;;15.40;6.03;;;17.90;99.90;;;;;;4974692;28;20183;-88
2022/05/18 07:29:23;;;;;;;20.52;6.32;;;18.00;99.90;;;;;;4973647;28;20019;-90
2022/05/18 07:32:08;;;;;;;25.48;7.20;;;18.20;99.90;;;;;;4979102;28;20035;-88
2022/05/18 07:34:35;;;;;;;10.93;6.45;;;18.30;99.90;;;;;;4973467;28;20031;-90
2022/05/18 07:37:01;;;;;;;12.48;6.30;;;18.40;99.90;;;;;;4976218;29;20035;-88
2022/05/18 07:39:30;;;;;;;12.85;6.20;;;18.50;99.90;;;;;;4974510;28;20023;-90
2022/05/18 07:41:58;;;;;;;13.75;6.20;;;18.50;99.90;;;;;;4969714;29;20031;-89
2022/05/18 07:44:28;;;;;;;8.80;5.47;;;18.50;99.90;;;;;;4969692;28;20035;-89
2022/05/18 07:46:55;;;;;;;16.73;5.80;;;18.60;99.90;;;;;;4971640;29;20038;-89
2022/05/18 07:49:21;;;;;;;13.68;6.00;;;18.60;99.90;;;;;;4970746;29;20062;-91
2022/05/18 07:51:47;;;;;;;16.88;8.57;;;18.70;99.90;;;;;;4974484;29;20023;-90
2022/05/18 07:54:13;;;;;;;11.85;6.65;;;18.80;99.90;;;;;;4977937;28;20039;-90
2022/05/18 07:56:39;;;;;;;16.15;6.50;;;18.90;99.90;;;;;;4978901;28;20035;-91
2022/05/18 07:59:06;;;;;;;7.75;4.93;;;18.90;99.90;;;;;;4978486;28;20083;-89
2022/05/18 08:01:33;;;;;;;15.45;6.25;;;18.90;99.90;;;;;;4975122;28;20054;-90
2022/05/18 08:03:59;;;;;;;10.52;5.90;;;18.90;99.90;;;;;;4974260;29;20095;-89
2022/05/18 08:06:25;;;;;;;16.13;7.30;;;18.80;99.90;;;;;;4974670;28;20031;-90
2022/05/18 08:08:53;;;;;;;12.00;5.45;;;18.80;99.90;;;;;;4979163;28;20043;-90
2022/05/18 08:16:48;;;;;;;8.02;4.90;;;18.90;99.90;;;;;;4978574;28;20279;-91
2022/05/18 08:19:15;;;;;;;14.30;4.18;;;18.90;99.90;;;;;;4976467;28;20007;-90
2022/05/18 08:21:41;;;;;;;10.13;3.90;;;18.80;99.90;;;;;;4975977;29;20035;-89
2022/05/18 08:24:08;;;;;;;14.55;4.13;;;18.90;99.90;;;;;;4977894;28;20034;-90
2022/05/18 08:26:34;;;;;;;6.43;3.28;;;18.90;99.50;;;;;;4978899;28;20039;-89
2022/05/18 08:29:01;;;;;;;9.88;3.42;;;19.00;98.70;;;;;;4978605;28;20011;-90
2022/05/18 08:31:27;;;;;;;7.13;2.70;;;19.00;98.70;;;;;;4978093;28;20027;-89
2022/05/18 08:33:53;;;;;;;6.32;2.90;;;19.10;98.30;;;;;;4976620;29;20038;-89
2022/05/18 08:36:20;;;;;;;7.03;3.13;;;19.20;98.00;;;;;;4973025;29;20047;-90
2022/05/18 08:38:46;;;;;;;8.38;2.40;;;19.20;97.60;;;;;;4976244;28;20039;-89
2022/05/18 08:41:18;;;;;;;5.30;2.50;;;19.20;96.80;;;;;;4976494;28;20031;-89
2022/05/18 08:43:47;;;;;;;5.70;2.58;;;19.20;96.60;;;;;;4975102;29;20058;-88
2022/05/18 08:46:44;;;;;;;5.82;2.38;;;19.20;96.50;;;;;;4975780;28;20042;-90
2022/05/18 08:49:24;;;;;;;4.65;2.55;;;19.30;95.50;;;;;;4975797;29;20055;-88
2022/05/18 08:51:59;;;;;;;4.20;2.40;;;19.40;95.30;;;;;;4975281;28;20039;-91
2022/05/18 08:54:40;;;;;;;6.78;3.25;;;19.40;95.60;;;;;;4972284;28;20035;-90
2022/05/18 08:57:21;;;;;;;9.95;3.10;;;19.30;95.80;;;;;;4973369;29;20079;-89
2022/05/18 08:59:53;;;;;;;4.18;2.63;;;19.30;96.00;;;;;;4974769;29;20031;-90
2022/05/18 09:02:25;;;;;;;8.45;2.25;;;19.40;95.20;;;;;;4975222;29;20110;-89
2022/05/18 09:05:16;;;;;;;7.25;2.50;;;19.50;94.60;;;;;;4975891;28;20039;-91
2022/05/18 09:08:10;;;;;;;5.32;2.22;;;19.50;94.60;;;;;;4976220;28;20047;-89
2022/05/18 09:10:45;;;;;;;7.53;1.85;;;19.50;94.30;;;;;;4975863;28;20042;-89
2022/05/18 09:13:13;;;;;;;7.85;2.10;;;19.70;93.90;;;;;;4972835;29;20034;-89
2022/05/18 09:15:57;;;;;;;4.78;2.28;;;19.80;94.20;;;;;;5002778;23;20042;-82
2022/05/18 09:18:41;;;;;;;4.47;1.55;;;20.00;93.60;;;;;;4995525;28;20030;-82
2022/05/18 09:21:26;;;;;;;4.43;2.15;;;20.00;93.40;;;;;;4995599;28;20039;-82
2022/05/18 09:24:05;;;;;;;5.05;2.20;;;20.00;93.10;;;;;;4996436;28;20053;-82
2022/05/18 09:26:45;;;;;;;8.07;2.28;;;20.00;92.00;;;;;;4998506;28;20069;-83
2022/05/18 09:29:44;;;;;;;8.02;1.90;;;20.00;91.90;;;;;;5013111;28;20030;-81
2022/05/18 09:32:16;;;;;;;9.70;2.33;;;20.10;92.50;;;;;;5001266;28;20038;-81
2022/05/18 09:35:03;;;;;;;11.75;2.40;;;20.40;92.10;;;;;;5005268;28;20014;-81
2022/05/18 09:37:44;;;;;;;7.78;2.38;;;21.00;90.70;;;;;;4997525;28;20034;-82
2022/05/18 09:40:32;;;;;;;12.70;4.85;;;21.30;90.50;;;;;;5001078;28;20456;-82
2022/05/18 09:43:26;;;;;;;6.60;3.03;;;21.90;90.10;;;;;;4999236;28;20168;-82
2022/05/18 09:45:54;;;;;;;5.95;1.90;;;22.30;89.60;;;;;;5000236;28;20037;-82
2022/05/18 09:48:34;;;;;;;4.25;2.30;;;23.10;87.20;;;;;;5002224;28;20105;-81
2022/05/18 09:51:00;;;;;;;5.20;2.40;;;24.60;84.60;;;;;;5008427;28;20034;-81
2022/05/18 09:53:26;;;;;;;6.70;2.70;;;25.30;81.40;;;;;;5005099;28;20042;-82
2022/05/18 09:55:53;;;;;;;5.90;2.05;;;26.70;76.80;;;;;;5001901;28;20037;-82
2022/05/18 09:58:28;;;;;;;7.95;2.60;;;27.40;74.60;;;;;;5002122;28;20030;-82
2022/05/18 10:07:27;;;;;;;3.67;2.00;;;27.90;72.30;;;;;;5002451;28;20561;-83
2022/05/18 10:09:49;;;;;;;4.95;1.80;;;29.70;63.90;;;;;;5000664;28;20035;-81
2022/05/18 10:12:30;;;;;;;3.58;1.65;;;30.50;60.80;;;;;;5003694;28;20062;-81
2022/05/18 10:15:31;;;;;;;3.17;2.08;;;30.40;58.90;;;;;;5003856;28;20030;-81
2022/05/18 10:18:00;;;;;;;7.75;1.67;;;31.30;56.20;;;;;;5003474;28;20054;-83
2022/05/18 10:20:32;;;;;;;4.13;1.67;;;30.90;56.10;;;;;;5004009;28;20027;-81
2022/05/18 10:23:00;;;;;;;4.72;1.70;;;31.70;54.50;;;;;;5002010;28;20034;-82
2022/05/18 10:25:35;;;;;;;4.68;2.00;;;33.10;52.30;;;;;;5005467;28;20019;-81
2022/05/18 10:28:18;;;;;;;4.05;1.60;;;33.40;52.10;;;;;;5007516;28;20043;-82
2022/05/18 10:30:55;;;;;;;9.07;1.70;;;33.90;51.10;;;;;;5007111;28;20057;-82
2022/05/18 10:33:31;;;;;;;11.25;2.03;;;32.90;51.30;;;;;;5004661;28;20093;-82
2022/05/18 10:36:06;;;;;;;3.53;1.42;;;32.50;50.30;;;;;;5004906;28;20042;-82
2022/05/18 10:38:36;;;;;;;6.35;1.80;;;32.50;49.90;;;;;;5004649;28;20040;-81
2022/05/18 10:41:11;;;;;;;21.35;11.88;;;33.00;49.40;;;;;;5008117;28;20034;-81
2022/05/18 10:43:44;;;;;;;4.72;1.60;;;33.50;48.80;;;;;;5007383;28;20031;-81
2022/05/18 10:46:15;;;;;;;5.07;1.47;;;34.70;47.80;;;;;;4992043;28;20035;-81
2022/05/18 10:49:04;;;;;;;4.55;1.95;;;36.10;46.90;;;;;;5008100;28;20273;-80
2022/05/18 10:51:39;;;;;;;6.10;1.45;;;35.70;46.00;;;;;;4991382;28;20098;-80
2022/05/18 10:54:13;;;;;;;5.28;1.20;;;35.70;46.40;;;;;;5010303;28;20030;-81
2022/05/18 10:56:40;;;;;;;1.88;1.13;;;35.70;44.90;;;;;;5007950;28;20058;-81
2022/05/18 10:59:35;;;;;;;6.55;1.38;;;35.50;44.60;;;;;;5008025;28;20138;-81
2022/05/18 11:02:12;;;;;;;2.42;1.52;;;35.60;44.50;;;;;;5009531;28;20098;-82
2022/05/18 11:04:50;;;;;;;4.03;1.60;;;34.80;44.80;;;;;;5010154;28;20026;-81
2022/05/18 11:07:19;;;;;;;3.20;1.60;;;34.00;45.70;;;;;;5009171;28;20027;-81
2022/05/18 11:09:45;;;;;;;5.35;1.65;;;34.60;44.90;;;;;;5009558;28;20026;-80
2022/05/18 11:12:11;;;;;;;5.50;1.20;;;35.40;44.00;;;;;;5009482;28;20037;-81
2022/05/18 11:14:51;;;;;;;2.72;1.30;;;36.20;43.00;;;;;;5006472;28;20495;-82
2022/05/18 11:17:16;;;;;;;6.93;1.80;;;36.30;42.70;;;;;;5006661;28;20359;-84
2022/05/18 11:20:19;;;;;;;3.78;1.00;;;35.00;42.50;;;;;;5006457;28;20077;-83
2022/05/18 11:22:59;;;;;;;2.50;1.35;;;35.40;41.80;;;;;;4990100;28;20030;-83
2022/05/18 11:25:53;;;;;;;3.03;1.52;;;34.70;42.20;;;;;;5010816;28;20035;-79
2022/05/18 11:28:47;;;;;;;3.15;1.33;;;35.20;42.10;;;;;;5008130;28;20053;-81
2022/05/18 11:31:20;;;;;;;6.05;2.45;;;36.00;42.00;;;;;;5000380;28;20041;-80
2022/05/18 11:34:01;;;;;;;4.60;1.83;;;36.40;40.80;;;;;;5005321;28;20058;-82
2022/05/18 11:36:52;;;;;;;15.93;4.07;;;35.90;41.70;;;;;;5010216;28;20541;-82
2022/05/18 11:39:24;;;;;;;16.35;5.28;;;35.80;41.10;;;;;;5006502;28;20034;-81
2022/05/18 11:42:16;;;;;;;21.42;7.47;;;36.10;40.80;;;;;;5005753;28;20034;-82
2022/05/18 11:45:01;;;;;;;3.30;1.85;;;36.30;39.70;;;;;;5004341;28;20030;-82
2022/05/18 11:47:40;;;;;;;;;;;36.60;38.70;;;;;;5005334;28;20482;-83
2022/05/18 11:50:37;;;;;;;4.13;1.98;;;37.00;38.90;;;;;;5006611;28;19913;-80
2022/05/18 11:53:18;;;;;;;6.80;1.85;;;37.00;39.60;;;;;;5005667;28;20115;-82
2022/05/18 11:56:07;;;;;;;3.97;1.55;;;37.20;39.60;;;;;;5006880;28;20030;-82
2022/05/18 12:01:52;;;;;;;4.15;1.00;;;36.00;38.50;;;;;;4998915;28;20042;-82
2022/05/18 12:04:21;;;;;;;6.03;1.60;;;35.50;37.80;;;;;;5004588;28;20027;-82
2022/05/18 12:07:10;;;;;;;2.95;1.20;;;35.20;37.40;;;;;;5003363;28;20038;-83
2022/05/18 12:09:45;;;;;;;5.82;1.02;;;35.80;36.60;;;;;;4999472;28;20030;-82
2022/05/18 12:12:14;;;;;;;3.95;1.50;;;35.80;38.10;;;;;;5000181;28;20401;-82
2022/05/18 12:15:02;;;;;;;5.40;1.25;;;36.40;37.90;;;;;;5000218;28;20037;-81
2022/05/18 12:17:45;;;;;;;4.68;1.35;;;36.80;36.60;;;;;;4984374;28;20105;-83
2022/05/18 12:20:25;;;;;;;1.80;0.98;;;36.40;36.20;;;;;;4998795;28;20031;-82
2022/05/18 12:23:05;;;;;;;3.65;1.50;;;37.40;35.40;;;;;;5002473;28;20520;-82
2022/05/18 12:25:31;;;;;;;4.97;2.00;;;36.90;34.80;;;;;;4999313;28;20041;-79
2022/05/18 12:28:00;;;;;;;2.65;1.45;;;36.80;35.30;;;;;;5005615;28;20587;-81
2022/05/18 12:30:29;;;;;;;4.03;1.77;;;36.90;35.00;;;;;;5006601;28;20030;-80
2022/05/18 12:32:56;;;;;;;13.50;7.68;;;37.60;34.70;;;;;;5005375;28;20041;-80
2022/05/18 12:35:35;;;;;;;4.80;2.92;;;38.20;34.80;;;;;;5004357;28;20077;-83
2022/05/18 12:38:09;;;;;;;1.80;1.38;;;38.30;34.80;;;;;;5000392;28;20031;-81
2022/05/18 12:40:46;;;;;;;3.88;1.50;;;38.60;35.00;;;;;;5000786;28;20053;-80
2022/05/18 12:43:21;;;;;;;3.30;1.10;;;38.20;35.00;;;;;;4999083;28;20035;-82
2022/05/18 12:45:48;;;;;;;4.82;1.25;;;37.90;35.10;;;;;;4998823;28;20110;-82
2022/05/18 12:48:58;;;;;;;14.43;5.20;;;37.00;35.30;;;;;;4998464;28;20414;-81
2022/05/18 12:51:26;;;;;;;3.83;1.48;;;37.00;35.40;;;;;;5001956;28;20064;-83
2022/05/18 12:53:52;;;;;;;3.05;1.80;;;36.60;35.40;;;;;;4985674;28;20049;-84
2022/05/18 12:56:34;;;;;;;7.18;1.67;;;36.70;35.40;;;;;;5001428;28;20034;-82
2022/05/18 12:59:07;;;;;;;2.97;1.30;;;36.50;35.20;;;;;;5002799;28;20124;-81
2022/05/18 13:01:38;;;;;;;2.05;1.10;;;36.20;35.40;;;;;;5002840;28;20038;-83
2022/05/18 13:04:10;;;;;;;8.93;1.20;;;36.20;35.70;;;;;;4998984;28;20030;-84
2022/05/18 13:06:35;;;;;;;4.63;1.35;;;36.10;35.60;;;;;;5001886;28;20030;-82
2022/05/18 13:09:38;;;;;;;1.83;1.20;;;36.60;35.90;;;;;;5004509;28;20023;-81
2022/05/18 13:12:23;;;;;;;6.13;2.95;;;36.90;34.80;;;;;;5003228;28;20098;-84
2022/05/18 13:15:08;;;;;;;2.45;1.17;;;36.70;34.70;;;;;;5001834;28;20040;-83
2022/05/18 13:17:46;;;;;;;3.95;1.58;;;36.30;34.60;;;;;;4999208;28;20125;-83
2022/05/18 13:20:52;;;;;;;2.00;1.10;;;36.50;34.50;;;;;;5001023;28;20030;-83
2022/05/18 13:23:29;;;;;;;1.73;0.90;;;36.00;34.90;;;;;;5003508;28;20030;-84